San Gregorio, CA (94074)

4:23 AM PDT on August 27, 2014 (GMT -0700)
LA HONDA | Change Station
CLOSE
Current Station
Personal Weather Station
Location: Redwood City, CA
Elevation: 439 ft
Nearby Weather Stations

Elev 439 ft 37.32 °N, 122.27 °W | Updated 6 minutes ago

Clear
Clear
53.0 °F
Feels Like 53.0 °F
N
3.0
Wind Variable Wind from ENE

Today
High -- | Low -- °F
--% Chance of Precip.
Yesterday
High -- | Low -- °F
Precip. -- in
6:35 AM 7:45 PM
Waxing Crescent, 3% visible
Pressure 30.02 in
Visibility 10.0 miles
Clouds Clear
Dew Point 51 °F
Humidity 93%
Rainfall -999.00 in
Snow Depth Not available.
UV 0 out of 12
Pollen 7.00 out of 12
Air Quality Not available.
Flu Activity Not available.
METAR KSQL 271110Z AUTO 00000KT 10SM CLR 17/13 A3002 RMK AO2

More Conditions Fewer Conditions

Pressure 30.02 in
Visibility 10.0 miles
Clouds Clear
Dew Point 51 °F
Humidity 93%
Rainfall -999.00 in
Snow Depth Not available.
UV 0 out of 12
Pollen 7.00 out of 12
Air Quality Not available.
Flu Activity Not available.
METAR KSQL 271110Z AUTO 00000KT 10SM CLR 17/13 A3002 RMK AO2

More Conditions Fewer Conditions

10-Day Weather Forecast

Almanac

Astronomy

Aug. 27, 2014 Rise Set
Actual Time 6:35 AM PDT 7:45 PM PDT
Civil Twilight 6:08 AM PDT 8:12 PM PDT
Nautical Twilight 5:36 AM PDT 8:44 PM PDT
Astronomical Twilight 5:03 AM PDT 9:17 PM PDT
Moon 8:33 AM PDT 8:44 PM PDT
Length of Visible Light 14h 03m
Length of Day
13h 09m
Tomorrow will be 2m 15s shorter.
Waxing Crescent, 3% of the Moon is Illuminated
Today
Waxing Crescent
Sep 2
First Quarter
Sep 8
Full
Sep 15
Last Quarter
Sep 24
New

Today's Extremes

State Highs State Lows

Community

WunderPhotos

Upload Photos

1,747,667 photos uploaded!

Nearby

Snow Depth

Station Depth Elevation
Blue Lakes 0 in 8000 ft
Forestdale Creek 0 in 8029 ft
Leavitt Lake 1 in 9400 ft
Ebbetts Pass 0 in 8700 ft
Echo Peak 1 in 7800 ft

Earthquake Activity

City Distance Mag. Time & Date
Soledad, California 86 miles 2.6 12:15 PM PDT
2014-08-26
Napa, California 64 miles 2.5 10:56 AM PDT
2014-08-26
Napa, California 65 miles 3.0 6:45 AM PDT
2014-08-26
American Canyon, California 60 miles 2.8 6:12 AM PDT
2014-08-26
Minimum magnitude displayed is 2.5.

Coastal Water Temperatures

Place Temperature
Point Reyes, CA 64.0 °F
San Francisco, CA 64.9 °F
Richmond, CA 66.0 °F

Nearby Weather Stations